Time;durP1;ratioP1;P1;durP2;ratioP2;P2;SDS_P1;SDS_P2;PMS_P1;PMS_P2;Temp;Humidity;BMP_temperature;BMP_pressure;BME280_temperature;BME280_humidity;BME280_pressure;Samples;Min_cycle;Max_cycle;Signal;HPM_P1;HPM_P2
2023/01/08 00:01:10;;;;;;;25.40;17.98;;;17.60;79.50;;;18.84;44.54;98747.88;5107270;28;20040;-81
2023/01/08 00:03:47;;;;;;;27.50;18.08;;;17.60;79.80;;;18.82;44.97;98741.91;5092412;28;20051;-81
2023/01/08 00:06:18;;;;;;;19.35;15.43;;;17.60;79.90;;;18.85;44.75;98736.56;5073186;28;20076;-81
2023/01/08 00:08:44;;;;;;;24.75;17.77;;;17.60;79.90;;;18.82;44.77;98734.47;5072819;28;20051;-81
2023/01/08 00:11:10;;;;;;;26.65;18.25;;;17.70;79.90;;;18.85;44.61;98730.25;5069521;28;20036;-81
2023/01/08 00:13:37;;;;;;;22.35;16.58;;;17.70;79.70;;;18.83;44.70;98725.09;5068146;28;20036;-81
2023/01/08 00:16:04;;;;;;;23.92;17.23;;;17.70;79.40;;;18.87;44.53;98727.97;5067879;28;20075;-81
2023/01/08 00:18:30;;;;;;;26.48;19.30;;;17.70;79.50;;;18.85;44.41;98730.25;5088270;28;20042;-81
2023/01/08 00:20:57;;;;;;;27.80;17.88;;;17.70;79.40;;;18.84;44.56;98723.94;5073535;28;20039;-81
2023/01/08 00:23:23;;;;;;;31.58;18.20;;;17.70;79.30;;;18.83;44.30;98727.84;5066788;28;20145;-81
2023/01/08 00:25:49;;;;;;;28.73;19.27;;;17.60;79.40;;;18.84;44.54;98723.94;5057935;28;20044;-80
2023/01/08 00:28:16;;;;;;;24.45;17.85;;;17.70;79.50;;;18.83;44.64;98722.34;5060188;28;20039;-81
2023/01/08 00:30:42;;;;;;;25.55;17.42;;;17.70;79.70;;;18.86;44.68;98718.13;5059009;28;20044;-81
2023/01/08 00:33:09;;;;;;;24.83;17.05;;;17.60;79.90;;;18.83;44.83;98721.56;5089416;28;20111;-81
2023/01/08 00:35:37;;;;;;;26.55;17.73;;;17.60;80.00;;;18.83;44.65;98722.34;5077467;28;20050;-81
2023/01/08 00:38:03;;;;;;;24.05;16.27;;;17.60;79.70;;;18.82;44.64;98712.47;5095498;28;20040;-81
2023/01/08 00:40:29;;;;;;;26.48;18.05;;;17.70;79.70;;;18.84;44.55;98712.97;5081172;28;20053;-81
2023/01/08 00:42:55;;;;;;;24.25;17.35;;;17.70;79.50;;;18.82;44.60;98715.22;5111403;28;20058;-81
2023/01/08 00:45:21;;;;;;;24.25;17.73;;;17.70;79.40;;;18.84;44.56;98717.66;5058754;28;20777;-81
2023/01/08 00:47:49;;;;;;;25.88;16.83;;;17.70;79.50;;;18.84;44.45;98710.22;5078051;28;20126;-80
2023/01/08 00:50:15;;;;;;;24.38;17.35;;;17.70;79.40;;;18.83;44.34;98710.56;5088376;28;20127;-81
2023/01/08 00:52:44;;;;;;;27.35;17.83;;;17.70;79.10;;;18.85;44.27;98705.53;5089206;28;20689;-81
2023/01/08 00:55:10;;;;;;;23.00;17.55;;;17.70;79.10;;;18.83;44.50;98708.63;5057749;28;20121;-81
2023/01/08 00:57:38;;;;;;;25.35;18.25;;;17.70;79.50;;;18.81;44.49;98701.84;5079072;28;20043;-81
2023/01/08 01:00:07;;;;;;;26.77;18.50;;;17.60;79.50;;;18.78;45.02;98699.75;5078089;28;20047;-81
2023/01/08 01:02:35;;;;;;;26.73;18.13;;;17.60;80.00;;;18.81;44.60;98696.34;5078858;28;20540;-81
2023/01/08 01:05:01;;;;;;;25.63;18.30;;;17.60;79.90;;;18.81;44.44;98691.66;5056302;28;20040;-81
2023/01/08 01:07:27;;;;;;;27.80;18.33;;;17.60;79.70;;;18.81;44.44;98696.34;5054693;28;20139;-81
2023/01/08 01:09:54;;;;;;;28.08;19.38;;;17.60;79.40;;;18.83;44.61;98696.81;5076639;28;20073;-81
2023/01/08 01:12:20;;;;;;;24.98;19.10;;;17.70;79.40;;;18.83;44.45;98699.56;5094558;28;20114;-81
2023/01/08 01:14:46;;;;;;;24.13;18.95;;;17.70;79.20;;;18.81;44.32;98699.09;5076486;28;20043;-81
2023/01/08 01:17:12;;;;;;;33.20;18.55;;;17.70;79.00;;;18.80;44.53;98694.72;5095147;28;20100;-81
2023/01/08 01:19:38;;;;;;;23.95;17.30;;;17.70;79.00;;;18.79;44.27;98682.91;5072380;27;20064;-81
2023/01/08 01:22:04;;;;;;;26.45;18.25;;;17.60;79.10;;;18.82;44.19;98687.75;5092399;28;20139;-81
2023/01/08 01:24:30;;;;;;;27.75;19.02;;;17.70;79.00;;;18.81;44.11;98697.13;5076326;28;20043;-81
2023/01/08 01:26:56;;;;;;;26.00;18.25;;;17.70;78.90;;;18.80;44.27;98684.56;5053638;28;20371;-81
2023/01/08 01:29:23;;;;;;;30.27;19.67;;;17.70;79.00;;;18.85;44.38;98695.34;5075612;28;20035;-81
2023/01/08 01:31:49;;;;;;;33.80;20.23;;;17.70;79.10;;;18.82;44.41;98693.25;5057068;28;20071;-81
2023/01/08 01:34:16;;;;;;;27.48;19.85;;;17.70;79.00;;;18.83;44.16;98686.63;5077600;28;20046;-81
2023/01/08 01:36:42;;;;;;;27.25;19.52;;;17.70;78.70;;;18.81;44.42;98680.66;5074713;28;20047;-81
2023/01/08 01:39:08;;;;;;;31.17;20.15;;;17.70;78.90;;;18.82;44.22;98679.50;5073651;28;20036;-81
2023/01/08 01:41:44;;;;;;;26.38;18.38;;;17.70;78.70;;;18.82;43.91;98671.25;5076178;28;20035;-81
2023/01/08 01:44:36;;;;;;;24.63;19.25;;;17.70;78.60;;;18.82;44.03;98670.47;5093861;28;20088;-81
2023/01/08 01:47:19;;;;;;;27.75;18.67;;;17.70;78.90;;;18.75;44.17;98661.88;5091506;28;20041;-81
2023/01/08 01:50:00;;;;;;;30.30;18.65;;;17.50;79.50;;;18.76;44.55;98650.63;5095114;28;20036;-81
2023/01/08 01:52:27;;;;;;;29.77;20.02;;;17.50;79.50;;;18.76;44.34;98653.34;5092388;28;20040;-81
2023/01/08 01:54:53;;;;;;;27.02;19.20;;;17.60;79.40;;;18.78;44.17;98653.84;5092090;28;20040;-81
2023/01/08 01:57:19;;;;;;;30.58;19.75;;;17.60;79.10;;;18.79;44.25;98654.66;5076801;28;20039;-81
2023/01/08 01:59:46;;;;;;;27.48;20.25;;;17.60;79.10;;;18.79;44.24;98643.66;5090730;28;20689;-81
2023/01/08 02:02:12;;;;;;;28.92;19.42;;;17.60;78.90;;;18.80;44.17;98646.06;5053945;28;20454;-81
2023/01/08 02:04:38;;;;;;;26.35;19.20;;;17.70;78.90;;;18.79;44.03;98638.16;5071470;28;20039;-81
2023/01/08 02:08:00;;;;;;;26.63;19.42;;;17.60;78.90;;;18.76;43.98;98636.88;5055306;28;20059;-81
2023/01/08 02:10:35;;;;;;;28.75;20.85;;;17.60;78.90;;;18.77;44.09;98635.72;5092371;28;20040;-81
2023/01/08 02:13:09;;;;;;;31.52;20.50;;;17.60;78.90;;;18.77;44.15;98632.97;5089530;28;20047;-81
2023/01/08 02:15:57;;;;;;;25.85;19.83;;;17.60;78.80;;;18.75;44.00;98632.53;5083348;28;20049;-81
2023/01/08 02:18:53;;;;;;;28.75;19.60;;;17.60;78.70;;;18.76;44.13;98633.31;5094026;28;20114;-81
2023/01/08 02:21:35;;;;;;;32.78;19.92;;;17.60;78.80;;;18.76;44.01;98631.38;5109946;27;20039;-81
2023/01/08 02:24:42;;;;;;;27.65;19.15;;;17.60;78.70;;;18.76;44.12;98628.63;5091172;28;20468;-81
2023/01/08 02:27:09;;;;;;;32.95;20.95;;;17.60;78.60;;;18.74;43.95;98616.34;5089625;27;20058;-81
2023/01/08 02:29:35;;;;;;;28.90;19.88;;;17.60;78.80;;;18.73;44.03;98612.78;5091762;28;20062;-81
2023/01/08 02:32:01;;;;;;;29.35;19.52;;;17.60;78.60;;;18.72;43.96;98616.66;5074276;28;20365;-81
2023/01/08 02:34:30;;;;;;;32.70;19.52;;;17.50;78.60;;;18.75;43.78;98604.19;5053090;28;20052;-81
2023/01/08 02:36:57;;;;;;;26.75;20.23;;;17.50;78.80;;;18.73;43.74;98618.28;5075804;28;20714;-81
2023/01/08 02:40:06;;;;;;;32.22;21.08;;;17.50;78.90;;;18.71;43.98;98619.75;5093165;28;20054;-82
2023/01/08 02:43:02;;;;;;;31.08;20.98;;;17.50;78.70;;;18.69;44.12;98617.31;5091311;28;20122;-81
2023/01/08 02:45:47;;;;;;;26.08;20.75;;;17.50;78.60;;;18.71;43.69;98628.00;5109808;28;20050;-81
2023/01/08 02:48:41;;;;;;;28.48;19.98;;;17.50;78.70;;;18.66;44.07;98627.03;5076556;28;20044;-81
2023/01/08 02:51:27;;;;;;;32.88;21.58;;;17.50;78.70;;;18.70;43.81;98627.19;5094599;28;20044;-81
2023/01/08 02:53:58;;;;;;;24.23;19.58;;;17.50;78.60;;;18.64;44.25;98626.56;5092481;28;20036;-81
2023/01/08 02:56:30;;;;;;;28.70;21.13;;;17.50;79.10;;;18.60;44.66;98624.81;5091925;28;20086;-81
2023/01/08 02:58:57;;;;;;;28.20;20.58;;;17.40;79.30;;;18.61;44.25;98629.16;5076187;28;20096;-81
2023/01/08 03:01:24;;;;;;;29.10;20.30;;;17.40;79.20;;;18.69;43.96;98635.75;5054446;28;20506;-81
2023/01/08 03:04:05;;;;;;;30.95;20.75;;;17.40;79.00;;;18.65;43.99;98632.88;5070036;28;20050;-81
2023/01/08 03:06:31;;;;;;;30.70;20.65;;;17.40;78.80;;;18.65;44.09;98627.38;5089072;28;20055;-81
2023/01/08 03:08:57;;;;;;;29.73;21.25;;;17.50;78.90;;;18.65;43.90;98625.44;5056853;28;20040;-81
2023/01/08 03:11:23;;;;;;;26.20;19.25;;;17.40;78.60;;;18.64;44.19;98625.75;5069670;28;20500;-81
2023/01/08 03:13:53;;;;;;;30.35;21.30;;;17.40;78.70;;;18.63;44.10;98613.16;5053543;28;20047;-81
2023/01/08 03:16:35;;;;;;;30.88;22.23;;;17.40;78.80;;;18.66;44.17;98601.50;5087171;28;20043;-81
2023/01/08 03:19:19;;;;;;;31.73;21.40;;;17.40;78.90;;;18.63;43.94;98608.47;5090660;28;20058;-81
2023/01/08 03:21:45;;;;;;;30.95;21.80;;;17.40;78.70;;;18.65;44.04;98605.41;5101824;28;20035;-81
2023/01/08 03:24:16;;;;;;;32.35;21.13;;;17.40;78.80;;;18.63;44.35;98607.66;5067110;28;20133;-82
2023/01/08 03:26:43;;;;;;;;;;;17.40;79.30;;;18.59;44.08;98606.72;5071513;28;20433;-81
2023/01/08 03:29:11;;;;;;;32.00;21.05;;;17.40;79.20;;;18.66;44.12;98607.00;5091608;28;19925;-82
2023/01/08 03:31:37;;;;;;;29.05;21.13;;;17.40;79.20;;;18.67;44.13;98603.09;5074068;28;20167;-81
2023/01/08 03:34:04;;;;;;;35.25;23.90;;;17.40;78.80;;;18.66;43.93;98612.50;5071651;28;20047;-82
2023/01/08 03:36:30;;;;;;;30.67;21.25;;;17.40;78.80;;;18.71;44.03;98598.56;5054823;28;20039;-82
2023/01/08 03:39:23;;;;;;;27.13;19.67;;;17.50;78.80;;;18.66;43.88;98596.00;5072857;28;20036;-81
2023/01/08 03:41:49;;;;;;;28.95;20.65;;;17.40;78.60;;;18.66;43.97;98585.81;5084416;28;20044;-81
2023/01/08 03:44:15;;;;;;;31.30;21.05;;;17.40;78.80;;;18.69;44.03;98589.84;5090912;28;20080;-81
2023/01/08 03:46:46;;;;;;;30.75;20.55;;;17.40;78.70;;;18.69;43.83;98583.56;5074468;28;20387;-82
2023/01/08 03:49:12;;;;;;;34.63;21.02;;;17.40;78.90;;;18.65;43.95;98589.72;5052442;28;20084;-81
2023/01/08 03:51:43;;;;;;;33.58;23.25;;;17.40;79.80;;;18.69;44.06;98587.09;5074042;28;20039;-81
2023/01/08 03:54:13;;;;;;;27.45;20.25;;;17.40;78.90;;;18.69;44.19;98586.31;5106166;28;20463;-81
2023/01/08 03:56:39;;;;;;;30.63;22.00;;;17.40;79.20;;;18.67;44.24;98586.63;5073105;28;20124;-81
2023/01/08 03:59:05;;;;;;;31.92;20.15;;;17.40;79.60;;;18.67;44.21;98570.13;5091622;28;20039;-81
2023/01/08 04:01:31;;;;;;;29.65;20.52;;;17.40;79.40;;;18.71;43.95;98570.28;5066882;28;20187;-81
2023/01/08 04:03:57;;;;;;;32.55;22.92;;;17.30;79.10;;;18.68;44.01;98565.47;5089379;28;20043;-81
2023/01/08 04:06:23;;;;;;;32.92;20.52;;;17.30;79.30;;;18.71;44.00;98562.84;5073243;28;20056;-81
2023/01/08 04:08:49;;;;;;;32.97;22.17;;;17.40;79.30;;;18.72;44.11;98564.44;5073220;28;20374;-81
2023/01/08 04:11:15;;;;;;;29.15;21.13;;;17.40;79.10;;;18.74;43.68;98562.19;5091824;28;20039;-81
2023/01/08 04:13:42;;;;;;;30.90;22.15;;;17.40;79.00;;;18.76;43.75;98562.69;5107820;28;20039;-81
2023/01/08 04:16:08;;;;;;;29.17;20.25;;;17.40;79.30;;;18.78;43.75;98559.63;5101781;28;20107;-81
2023/01/08 04:18:34;;;;;;;35.72;20.98;;;17.40;78.90;;;18.78;43.98;98562.38;5091127;28;20060;-81
2023/01/08 04:21:00;;;;;;;33.00;21.75;;;17.50;79.00;;;18.76;43.91;98570.94;5088530;28;20482;-81
2023/01/08 04:23:26;;;;;;;35.45;23.70;;;17.40;78.80;;;18.73;43.86;98562.53;5057988;28;20074;-81
2023/01/08 04:25:52;;;;;;;28.73;22.48;;;17.40;79.10;;;18.74;43.90;98562.19;5069970;28;20108;-81
2023/01/08 04:28:20;;;;;;;30.67;21.55;;;17.50;79.00;;;18.74;43.82;98570.41;5070740;28;20096;-81
2023/01/08 04:30:46;;;;;;;31.40;22.13;;;17.40;78.80;;;18.71;44.12;98562.84;5090572;28;20491;-81
2023/01/08 04:33:12;;;;;;;30.10;19.45;;;17.30;79.30;;;18.70;44.30;98564.00;5087267;28;20039;-82
2023/01/08 04:35:38;;;;;;;28.70;19.77;;;17.30;79.70;;;18.70;43.96;98564.00;5057609;28;20514;-81
2023/01/08 04:38:04;;;;;;;27.23;20.60;;;17.30;79.40;;;18.78;43.91;98563.16;5089276;28;20159;-81
2023/01/08 04:40:32;;;;;;;29.75;20.58;;;17.30;79.40;;;18.75;44.03;98558.34;5072254;28;20388;-81
2023/01/08 04:42:58;;;;;;;32.17;21.50;;;17.40;79.10;;;18.74;43.94;98553.94;5083397;28;20543;-81
2023/01/08 04:45:24;;;;;;;29.92;20.52;;;17.50;78.90;;;18.75;43.88;98562.97;5090454;28;20036;-81
2023/01/08 04:47:57;;;;;;;27.80;19.80;;;17.50;78.80;;;18.77;43.74;98563.50;5085491;28;20050;-82
2023/01/08 04:50:23;;;;;;;30.85;21.45;;;17.60;78.70;;;18.75;43.94;98571.22;5074618;28;20050;-81
2023/01/08 04:52:49;;;;;;;30.73;22.17;;;17.50;78.50;;;18.78;43.79;98565.91;5074065;28;20092;-81
2023/01/08 04:55:15;;;;;;;26.00;19.95;;;17.50;78.70;;;18.75;43.85;98566.59;5088385;28;20368;-81
2023/01/08 04:57:42;;;;;;;31.02;21.70;;;17.50;78.80;;;18.77;44.27;98566.22;5073323;28;20048;-81
2023/01/08 05:00:08;;;;;;;27.10;19.10;;;17.40;78.90;;;18.75;44.14;98569.34;5074020;28;20082;-81
2023/01/08 05:02:35;;;;;;;33.08;20.45;;;17.40;79.30;;;18.72;44.09;98561.69;5086842;28;20612;-81
2023/01/08 05:05:01;;;;;;;28.02;19.05;;;17.30;79.60;;;18.72;43.90;98558.97;5099178;28;20551;-81
2023/01/08 05:07:27;;;;;;;27.73;20.92;;;17.30;79.50;;;18.75;43.98;98557.47;5091013;28;20079;-81
2023/01/08 05:09:53;;;;;;;29.35;20.25;;;17.40;79.40;;;18.70;43.97;98557.69;5071951;28;20067;-81
2023/01/08 05:12:19;;;;;;;28.20;18.58;;;17.40;79.30;;;18.73;43.95;98560.59;5069989;28;20040;-81
2023/01/08 05:14:46;;;;;;;27.83;19.88;;;17.40;79.20;;;18.72;43.94;98558.97;5110161;28;20041;-81
2023/01/08 05:17:12;;;;;;;28.40;19.05;;;17.40;78.90;;;18.75;44.15;98549.25;5074692;28;20436;-81
2023/01/08 05:19:38;;;;;;;23.92;18.23;;;17.40;79.10;;;18.74;43.87;98542.94;5077478;27;20087;-81
2023/01/08 05:22:04;;;;;;;30.13;20.50;;;17.50;79.70;;;18.68;44.21;98536.06;5092772;28;20473;-81
2023/01/08 05:24:30;;;;;;;25.30;18.33;;;17.40;79.40;;;18.69;44.32;98539.59;5074088;28;20050;-81
2023/01/08 05:26:56;;;;;;;28.85;20.08;;;17.30;79.60;;;18.72;44.00;98533.44;5074333;28;20129;-81
2023/01/08 05:29:22;;;;;;;28.25;19.75;;;17.30;79.60;;;18.73;44.07;98532.31;5067225;28;20126;-81
2023/01/08 05:31:48;;;;;;;25.52;18.80;;;17.30;79.40;;;18.75;44.05;98530.00;5092516;28;20068;-81
2023/01/08 05:34:14;;;;;;;26.38;19.45;;;17.40;79.40;;;18.71;43.94;98529.88;5057932;28;20486;-81
2023/01/08 05:36:40;;;;;;;29.75;20.40;;;17.40;79.10;;;18.73;43.95;98527.63;5089132;28;20073;-81
2023/01/08 05:39:06;;;;;;;27.60;18.90;;;17.40;79.30;;;18.71;44.03;98520.84;5076238;28;20036;-81
2023/01/08 05:41:32;;;;;;;25.65;19.67;;;17.40;79.70;;;18.66;44.33;98519.09;5059540;28;20049;-81
2023/01/08 05:43:59;;;;;;;27.95;18.38;;;17.30;79.60;;;18.71;44.00;98521.63;5094340;28;20055;-81
2023/01/08 05:46:26;;;;;;;28.25;20.45;;;17.30;79.40;;;18.71;43.97;98521.63;5076930;28;20042;-81
2023/01/08 05:48:51;;;;;;;28.05;19.88;;;17.30;79.40;;;18.74;43.97;98518.22;5080101;28;20378;-81
2023/01/08 05:51:18;;;;;;;24.35;19.98;;;17.30;79.30;;;18.70;44.16;98525.53;5079747;28;20049;-81
2023/01/08 05:53:44;;;;;;;28.52;19.65;;;17.40;79.50;;;18.70;44.04;98522.78;5076228;28;20379;-81
2023/01/08 05:56:10;;;;;;;25.00;17.92;;;17.30;79.20;;;18.68;43.80;98519.56;5079988;28;20046;-81
2023/01/08 05:58:37;;;;;;;29.00;19.70;;;17.40;79.40;;;18.73;43.97;98533.09;5059752;28;20100;-81
2023/01/08 06:01:12;;;;;;;28.10;19.20;;;17.40;79.10;;;18.72;43.97;98536.19;5115207;28;20039;-80
2023/01/08 06:03:38;;;;;;;26.27;18.83;;;17.40;79.20;;;18.72;43.70;98531.47;5095207;28;20101;-81
2023/01/08 06:06:05;;;;;;;27.27;19.25;;;17.40;79.00;;;18.69;43.71;98523.13;5053315;28;20063;-81
2023/01/08 06:08:32;;;;;;;25.35;18.50;;;17.40;79.00;;;18.69;43.75;98525.88;5043250;28;20121;-81
2023/01/08 06:10:59;;;;;;;27.50;19.77;;;17.30;79.20;;;18.68;43.98;98527.00;5055340;28;20069;-81
2023/01/08 06:13:26;;;;;;;28.92;20.65;;;17.30;79.00;;;18.70;44.12;98514.56;5037427;28;20410;-81
2023/01/08 06:15:52;;;;;;;25.90;19.33;;;17.40;79.10;;;18.70;43.79;98517.28;5039829;28;20495;-81
2023/01/08 06:18:18;;;;;;;29.85;20.35;;;17.30;79.10;;;18.68;43.79;98516.81;5076474;28;20059;-81
2023/01/08 06:20:44;;;;;;;25.15;17.88;;;17.30;78.90;;;18.71;43.75;98518.09;5071418;28;20598;-81
2023/01/08 06:23:10;;;;;;;28.98;20.02;;;17.40;79.00;;;18.67;43.83;98515.19;5094520;28;20043;-81
2023/01/08 06:25:36;;;;;;;25.75;18.35;;;17.40;78.80;;;18.68;43.87;98516.03;5059222;28;20139;-81
2023/01/08 06:28:03;;;;;;;26.73;20.55;;;17.30;78.70;;;18.66;43.79;98508.91;5038525;28;20107;-81
2023/01/08 06:30:30;;;;;;;21.75;16.83;;;17.30;78.90;;;18.67;43.70;98515.19;5043283;28;20768;-81
2023/01/08 06:32:57;;;;;;;27.52;19.75;;;17.30;78.90;;;18.63;43.83;98509.56;5055079;28;20039;-81
2023/01/08 06:35:24;;;;;;;26.42;19.48;;;17.30;79.00;;;18.65;43.93;98512.00;5059288;28;20107;-81
2023/01/08 06:37:49;;;;;;;26.38;20.08;;;17.20;79.30;;;18.60;43.81;98507.50;5057300;28;20445;-81
2023/01/08 06:40:16;;;;;;;28.80;19.80;;;17.30;79.10;;;18.61;43.94;98508.31;5057660;28;20044;-81
2023/01/08 06:42:43;;;;;;;26.27;19.88;;;17.20;79.30;;;18.62;43.95;98515.38;5059313;28;20436;-81
2023/01/08 06:45:10;;;;;;;24.55;18.55;;;17.20;79.30;;;18.61;44.07;98511.06;5056499;28;20040;-81
2023/01/08 06:47:36;;;;;;;26.90;18.30;;;17.20;79.20;;;18.61;44.03;98511.84;5058267;28;20134;-81
2023/01/08 06:50:02;;;;;;;24.77;18.55;;;17.20;79.30;;;18.61;43.67;98508.31;5056358;28;20441;-81
2023/01/08 06:52:28;;;;;;;25.13;18.27;;;17.20;79.00;;;18.62;43.59;98515.38;5074697;28;20487;-81
2023/01/08 06:54:54;;;;;;;25.65;17.73;;;17.20;78.90;;;18.61;43.93;98522.84;5050754;28;20036;-81
2023/01/08 06:57:20;;;;;;;27.23;18.92;;;17.20;79.00;;;18.56;43.99;98516.75;5055353;28;20551;-81
2023/01/08 06:59:47;;;;;;;24.55;17.60;;;17.20;79.10;;;18.58;43.97;98509.78;5074694;28;20483;-81
2023/01/08 07:02:14;;;;;;;23.30;17.52;;;17.20;79.30;;;18.61;43.82;98511.06;5042342;28;20067;-81
2023/01/08 07:04:40;;;;;;;27.88;19.60;;;17.20;79.10;;;18.59;43.76;98511.38;5072437;28;20043;-81
2023/01/08 07:07:06;;;;;;;23.77;17.17;;;17.20;79.10;;;18.62;43.92;98507.16;5051735;28;20043;-81
2023/01/08 07:09:35;;;;;;;24.48;17.98;;;17.10;79.30;;;18.59;43.82;98505.06;5095635;28;20406;-81
2023/01/08 07:12:01;;;;;;;24.85;18.38;;;17.20;80.20;;;18.54;44.25;98521.75;5091778;28;20459;-81
2023/01/08 07:14:27;;;;;;;26.30;18.27;;;17.10;79.50;;;18.53;44.15;98511.91;5078083;28;20040;-81
2023/01/08 07:16:53;;;;;;;21.65;16.80;;;17.10;79.50;;;18.57;44.16;98497.19;5089518;28;20039;-81
2023/01/08 07:19:19;;;;;;;33.35;19.60;;;17.10;79.50;;;18.57;44.20;98499.94;5072835;28;20050;-81
2023/01/08 07:21:45;;;;;;;24.23;18.20;;;17.10;79.50;;;18.58;43.95;98496.03;5078487;28;20039;-81
2023/01/08 07:24:12;;;;;;;21.88;17.80;;;17.20;79.40;;;18.60;43.87;98498.47;5077886;28;20486;-80
2023/01/08 07:26:38;;;;;;;23.75;16.75;;;17.10;79.40;;;18.57;44.00;98488.13;5073513;28;20136;-81
2023/01/08 07:29:05;;;;;;;24.63;17.77;;;17.10;79.20;;;18.60;43.92;98481.97;5075758;28;20090;-81
2023/01/08 07:31:31;;;;;;;22.90;16.77;;;17.10;79.20;;;18.58;44.03;98476.81;5069367;28;20039;-80
2023/01/08 07:33:58;;;;;;;26.40;16.98;;;17.10;79.10;;;18.61;43.77;98489.06;5076518;28;20075;-81
2023/01/08 07:36:24;;;;;;;25.42;16.80;;;17.20;79.00;;;18.58;43.91;98484.25;5089284;28;20093;-81
2023/01/08 07:38:50;;;;;;;23.88;17.85;;;17.20;79.10;;;18.62;43.97;98482.44;5093035;28;20039;-81
2023/01/08 07:41:17;;;;;;;28.73;18.05;;;17.20;79.10;;;18.59;43.74;98480.34;5075258;28;20043;-81
2023/01/08 07:43:45;;;;;;;20.52;16.27;;;17.20;79.10;;;18.62;43.58;98486.00;5111510;28;20036;-81
2023/01/08 07:46:11;;;;;;;23.60;16.30;;;17.10;79.00;;;18.57;43.80;98485.38;5078458;28;20036;-81
2023/01/08 07:48:37;;;;;;;28.50;18.83;;;17.20;79.10;;;18.55;43.79;98487.69;5085598;28;20095;-81
2023/01/08 07:51:05;;;;;;;24.05;16.92;;;17.10;79.20;;;18.57;43.78;98482.63;5077734;28;20028;-81
2023/01/08 07:53:32;;;;;;;26.83;16.92;;;17.10;79.40;;;18.55;44.13;98477.50;5076959;28;20036;-82
2023/01/08 07:56:09;;;;;;;22.60;16.13;;;17.10;79.40;;;18.54;43.68;98475.06;5059715;28;20051;-81
2023/01/08 07:58:35;;;;;;;24.45;17.35;;;17.10;79.10;;;18.58;43.81;98468.56;5078548;28;20036;-81
2023/01/08 08:01:01;;;;;;;24.40;17.45;;;17.20;79.30;;;18.59;43.55;98466.63;5077389;28;20074;-81
2023/01/08 08:03:27;;;;;;;24.35;16.35;;;17.10;79.20;;;18.59;43.74;98472.91;5076193;28;20052;-81
2023/01/08 08:05:54;;;;;;;22.85;16.38;;;17.10;79.20;;;18.60;43.75;98471.78;5090885;28;20062;-80
2023/01/08 08:08:20;;;;;;;24.90;16.90;;;17.10;79.30;;;18.58;44.09;98465.03;5110373;28;20084;-81
2023/01/08 08:10:46;;;;;;;21.10;16.20;;;17.10;79.40;;;18.57;43.84;98453.25;5092159;28;20043;-81
2023/01/08 08:13:12;;;;;;;24.02;16.35;;;17.10;79.30;;;18.62;43.82;98452.22;5094293;28;20109;-80
2023/01/08 08:15:39;;;;;;;21.08;16.20;;;17.20;79.10;;;18.59;43.68;98442.69;5090894;28;20057;-80
2023/01/08 08:18:05;;;;;;;22.33;15.60;;;17.20;79.50;;;18.64;43.65;98444.44;5107715;28;20039;-80
2023/01/08 08:20:31;;;;;;;27.10;16.95;;;17.10;79.00;;;18.56;43.88;98435.13;5091329;28;20059;-79
2023/01/08 08:23:06;;;;;;;24.58;16.73;;;17.10;79.30;;;18.60;43.98;98438.84;5092943;28;20054;-79
2023/01/08 08:25:32;;;;;;;22.58;16.70;;;17.10;79.20;;;18.58;43.78;98427.38;5072438;28;20036;-80
2023/01/08 08:27:59;;;;;;;24.02;16.90;;;17.10;79.00;;;18.63;44.15;98435.41;5073253;28;20048;-80
2023/01/08 08:30:25;;;;;;;23.10;17.25;;;17.10;79.50;;;18.55;44.12;98425.28;5108062;28;20129;-80
2023/01/08 08:32:52;;;;;;;19.77;15.00;;;17.10;79.50;;;18.57;43.82;98427.69;5073654;28;20386;-80
2023/01/08 08:35:18;;;;;;;21.80;16.02;;;17.10;79.30;;;18.64;43.85;98419.72;5075760;28;20044;-80
2023/01/08 08:37:45;;;;;;;23.77;16.88;;;17.20;79.30;;;18.63;43.78;98418.91;5076295;28;20050;-81
2023/01/08 08:40:11;;;;;;;22.73;15.85;;;17.20;79.20;;;18.63;43.51;98415.38;5074803;28;20040;-81
2023/01/08 08:42:38;;;;;;;22.25;15.77;;;17.20;78.80;;;18.59;43.49;98400.69;5072334;28;20505;-83
2023/01/08 08:45:05;;;;;;;24.23;16.08;;;17.20;78.70;;;18.62;43.50;98408.25;5103506;28;20039;-82
2023/01/08 08:47:32;;;;;;;20.20;15.13;;;17.20;78.60;;;18.64;43.53;98412.28;5070005;28;20048;-83
2023/01/08 08:49:58;;;;;;;20.85;14.50;;;17.20;78.70;;;18.65;43.44;98402.13;5059244;28;20134;-83
2023/01/08 08:52:25;;;;;;;23.63;15.80;;;17.20;78.50;;;18.68;43.35;98400.63;5074732;28;20105;-82
2023/01/08 08:54:52;;;;;;;24.38;16.02;;;17.30;78.60;;;18.63;43.42;98405.19;5041756;28;20070;-82
2023/01/08 08:57:19;;;;;;;24.15;15.60;;;17.30;78.30;;;18.62;43.46;98403.59;5092590;28;20232;-83
2023/01/08 08:59:45;;;;;;;19.75;14.27;;;17.20;78.40;;;18.68;43.38;98409.69;5111923;27;20111;-83
2023/01/08 09:02:11;;;;;;;21.55;14.70;;;17.30;79.20;;;18.67;43.35;98408.06;5093629;28;20036;-83
2023/01/08 09:04:37;;;;;;;25.30;16.98;;;17.30;78.30;;;18.67;43.24;98408.06;5082374;28;20055;-82
2023/01/08 09:07:03;;;;;;;21.70;15.63;;;17.30;78.20;;;18.68;43.28;98400.63;5082248;28;20040;-82
2023/01/08 09:09:29;;;;;;;19.50;15.23;;;17.30;78.10;;;18.68;43.24;98400.63;5114768;28;20039;-83
2023/01/08 09:11:56;;;;;;;20.50;15.23;;;17.40;78.20;;;18.69;43.28;98394.78;5080998;28;20124;-83
2023/01/08 09:14:22;;;;;;;21.15;14.85;;;17.40;78.20;;;18.69;43.04;98396.75;5057641;28;20067;-83
2023/01/08 09:16:48;;;;;;;22.83;15.57;;;17.30;78.00;;;18.70;43.07;98393.66;5113784;28;20147;-83
2023/01/08 09:19:14;;;;;;;22.88;14.60;;;17.30;78.00;;;18.72;43.26;98401.56;5079150;28;20035;-84
2023/01/08 09:21:40;;;;;;;18.23;13.85;;;17.40;78.20;;;18.68;43.17;98400.63;5083268;28;20043;-84
2023/01/08 09:24:07;;;;;;;18.98;14.40;;;17.40;78.00;;;18.68;43.31;98403.38;5058369;28;20046;-84
2023/01/08 09:26:33;;;;;;;17.95;14.65;;;17.40;78.10;;;18.66;43.26;98392.72;5078035;28;20110;-84
2023/01/08 09:29:00;;;;;;;18.77;14.60;;;17.40;77.90;;;18.69;43.21;98385.75;5112924;28;20035;-83
2023/01/08 09:31:26;;;;;;;20.65;14.80;;;17.40;77.70;;;18.72;42.93;98383.13;5080114;28;20044;-84
2023/01/08 09:33:52;;;;;;;20.23;13.02;;;17.40;77.80;;;18.72;43.00;98385.88;5078975;28;20224;-84
2023/01/08 09:36:19;;;;;;;21.73;15.30;;;17.40;77.70;;;18.67;43.02;98377.84;5103515;28;20042;-84
2023/01/08 09:38:45;;;;;;;22.33;14.38;;;17.50;77.40;;;18.68;43.28;98371.22;5095525;28;20043;-84
2023/01/08 09:41:24;;;;;;;19.10;14.35;;;17.50;77.60;;;18.65;43.21;98363.66;5078401;28;20039;-84
2023/01/08 09:43:51;;;;;;;20.40;14.43;;;17.50;77.50;;;18.68;43.31;98356.69;5063697;28;20117;-84
2023/01/08 09:46:18;;;;;;;23.15;14.43;;;17.50;77.50;;;18.66;43.19;98343.28;5061794;28;20046;-84
2023/01/08 09:48:44;;;;;;;17.50;13.65;;;17.60;77.50;;;18.68;43.21;98341.00;5098100;28;20039;-83
2023/01/08 09:51:17;;;;;;;16.70;13.05;;;17.50;77.30;;;18.70;42.92;98341.47;5062943;28;20417;-83
2023/01/08 09:53:43;;;;;;;20.42;13.18;;;17.50;77.30;;;18.66;43.17;98344.06;5101293;28;20036;-83
2023/01/08 09:56:16;;;;;;;15.95;12.45;;;17.50;77.40;;;18.67;43.16;98333.88;5115798;28;20040;-83
2023/01/08 09:58:57;;;;;;;22.15;14.77;;;17.50;78.30;;;18.68;43.04;98334.72;5098173;28;20055;-81
2023/01/08 10:01:34;;;;;;;16.67;12.73;;;17.50;77.30;;;18.65;43.34;98330.69;5076109;28;20043;-81
2023/01/08 10:04:02;;;;;;;17.98;12.82;;;17.60;77.70;;;18.70;43.48;98333.22;5077510;28;20096;-80
2023/01/08 10:06:30;;;;;;;23.20;13.93;;;17.50;78.10;;;18.70;44.72;98335.97;5123950;27;20081;-80
2023/01/08 10:08:56;;;;;;;17.58;12.63;;;17.50;79.30;;;18.69;43.55;98315.13;5087212;27;20534;-81
2023/01/08 10:11:23;;;;;;;16.63;12.40;;;17.60;78.00;;;18.67;43.55;98300.91;5065363;27;20039;-80